Robert G. Brownlee — WCY4665 — position and weather

sailwx.info

Track history (hours):
 
Tides and Currents Weather Stations Pressure Air Temp Water Temp Dewpoint Dewpoint Depression Visibility Wind Speed Wind Dir Waves Ship Positions

Robert G. Brownlee

Owner: MARINE SCIENCE INSTITUTE, REDWOOD CITY, CA. More information available from US FCC via Universal Licensing System and Coast Guard Vessel Documentation Center.

Last reported at 2018-Jan-07 21:35 UTC. Time now 2018-Jan-20 03:06 UTC.
Position N 38°02' W 122°08'.
Warning: this ship's position is 12 days out of date.

MMSI: 366751060.

Date/timePositionNaut miles runAvg speedWind from/ knotsBaromVisibWave heightAir tempDewpointWater temp
2018-Jan-07 21:35N 38°02' W 122°08'3 7.7
2018-Jan-07 21:10N 38°03' W 122°12'1 7.3
2018-Jan-07 20:59N 38°04' W 122°14'3 6.9
2018-Jan-07 20:29N 38°03' W 122°18'4 7.8
2018-Jan-07 19:59N 38°01' W 122°22'4 8.8
2018-Jan-07 19:30N 37°58' W 122°26'4 8.4
2018-Jan-07 19:00N 37°54' W 122°25'4 8.9
2018-Jan-07 18:30N 37°50' W 122°23'5 9.6
2018-Jan-07 18:00N 37°45' W 122°21'5 9.9
2018-Jan-07 17:30N 37°40' W 122°19'5 9.8
2018-Jan-07 17:01N 37°36' W 122°16'510.0
2018-Jan-07 16:31N 37°32' W 122°12'2 4.8
2018-Jan-07 16:00N 37°30' W 122°13'  
Track history (hours):
 
Tides and Currents Weather Stations Pressure Air Temp Water Temp Dewpoint Dewpoint Depression Visibility Wind Speed Wind Dir Waves Ship Positions

Robert G. Brownlee

Owner: MARINE SCIENCE INSTITUTE, REDWOOD CITY, CA. More information available from US FCC via Universal Licensing System and Coast Guard Vessel Documentation Center.

Last reported at 2018-Jan-07 21:35 UTC. Time now 2018-Jan-20 03:06 UTC.
Position N 38°02' W 122°08'.
Warning: this ship's position is 12 days out of date.

MMSI: 366751060.

Date/timePositionNaut miles runAvg speedWind from/ knotsBaromVisibWave heightAir tempDewpointWater temp
2018-Jan-07 21:35N 38°02' W 122°08'3 7.7
2018-Jan-07 21:10N 38°03' W 122°12'1 7.3
2018-Jan-07 20:59N 38°04' W 122°14'3 6.9
2018-Jan-07 20:29N 38°03' W 122°18'4 7.8
2018-Jan-07 19:59N 38°01' W 122°22'4 8.8
2018-Jan-07 19:30N 37°58' W 122°26'4 8.4
2018-Jan-07 19:00N 37°54' W 122°25'4 8.9
2018-Jan-07 18:30N 37°50' W 122°23'5 9.6
2018-Jan-07 18:00N 37°45' W 122°21'5 9.9
2018-Jan-07 17:30N 37°40' W 122°19'5 9.8
2018-Jan-07 17:01N 37°36' W 122°16'510.0
2018-Jan-07 16:31N 37°32' W 122°12'2 4.8
2018-Jan-07 16:00N 37°30' W 122°13'  

Dump ship's entire track history